Time;durP1;ratioP1;P1;durP2;ratioP2;P2;SDS_P1;SDS_P2;PMS_P1;PMS_P2;Temp;Humidity;BMP_temperature;BMP_pressure;BME280_temperature;BME280_humidity;BME280_pressure;Samples;Min_cycle;Max_cycle;Signal;HPM_P1;HPM_P2
2021/10/27 00:00:41;;;;;;;10.95;6.13;;;14.10;91.80;;;;;;5024033;28;20133;-76
2021/10/27 00:03:08;;;;;;;10.40;6.05;;;14.10;91.80;;;;;;5023629;28;20045;-76
2021/10/27 00:05:35;;;;;;;9.35;6.68;;;14.20;91.90;;;;;;5023383;28;20054;-76
2021/10/27 00:08:03;;;;;;;11.38;6.65;;;14.10;91.90;;;;;;5028284;28;20174;-76
2021/10/27 00:10:30;;;;;;;8.00;4.57;;;14.10;91.80;;;;;;5020351;28;20061;-75
2021/10/27 00:12:57;;;;;;;6.15;4.30;;;14.10;92.10;;;;;;5019847;28;20037;-76
2021/10/27 00:15:25;;;;;;;8.60;5.03;;;14.10;91.90;;;;;;5005571;28;20044;-76
2021/10/27 00:17:52;;;;;;;10.18;6.03;;;14.20;91.90;;;;;;5034907;28;20053;-76
2021/10/27 00:20:19;;;;;;;10.80;4.95;;;14.20;91.90;;;;;;5016777;28;20058;-76
2021/10/27 00:22:49;;;;;;;6.32;4.00;;;14.20;91.90;;;;;;5018488;28;20444;-77
2021/10/27 00:25:16;;;;;;;6.95;4.03;;;14.20;91.90;;;;;;5010236;28;20045;-77
2021/10/27 00:27:44;;;;;;;8.02;4.80;;;14.20;91.90;;;;;;5034120;28;21406;-77
2021/10/27 00:30:12;;;;;;;6.20;4.07;;;14.20;91.90;;;;;;5017461;28;20139;-77
2021/10/27 00:32:39;;;;;;;7.25;3.95;;;14.20;91.90;;;;;;5020311;28;20519;-77
2021/10/27 00:35:07;;;;;;;7.63;3.72;;;14.20;91.90;;;;;;5003287;28;20108;-77
2021/10/27 00:37:35;;;;;;;8.07;4.20;;;14.30;92.00;;;;;;5012651;28;20053;-77
2021/10/27 00:40:04;;;;;;;6.97;3.60;;;14.30;92.00;;;;;;5021757;28;20038;-77
2021/10/27 00:42:31;;;;;;;6.65;3.55;;;14.30;92.00;;;;;;5006807;28;20076;-79
2021/10/27 00:44:59;;;;;;;4.88;3.25;;;14.30;92.00;;;;;;5018963;28;20065;-78
2021/10/27 00:47:26;;;;;;;8.95;4.95;;;14.30;92.00;;;;;;5019877;28;20041;-78
2021/10/27 00:49:53;;;;;;;5.97;3.97;;;14.30;92.00;;;;;;4992672;28;20037;-79
2021/10/27 00:52:20;;;;;;;7.28;4.15;;;14.30;91.90;;;;;;5018338;28;20100;-79
2021/10/27 00:54:49;;;;;;;7.10;4.72;;;14.40;92.00;;;;;;5033075;28;20436;-79
2021/10/27 00:57:20;;;;;;;8.32;4.75;;;14.40;92.00;;;;;;5007557;28;20045;-78
2021/10/27 00:59:47;;;;;;;8.02;5.07;;;14.40;92.00;;;;;;5025015;28;20041;-79
2021/10/27 01:02:16;;;;;;;14.90;7.25;;;14.40;92.00;;;;;;5016454;28;20073;-79
2021/10/27 01:04:46;;;;;;;15.98;8.23;;;14.40;92.00;;;;;;5018466;28;20030;-79
2021/10/27 01:07:14;;;;;;;10.25;6.90;;;14.30;92.00;;;;;;5018051;28;20049;-77
2021/10/27 01:09:42;;;;;;;11.25;6.95;;;14.30;92.00;;;;;;5020659;28;20560;-77
2021/10/27 01:12:12;;;;;;;8.82;5.97;;;14.30;92.10;;;;;;5024065;28;20041;-77
2021/10/27 01:14:42;;;;;;;9.68;6.20;;;14.30;92.20;;;;;;5005214;28;20472;-77
2021/10/27 01:17:11;;;;;;;7.53;4.80;;;14.30;92.20;;;;;;5021245;28;20452;-76
2021/10/27 01:19:59;;;;;;;10.45;6.32;;;14.30;92.20;;;;;;5017693;28;20037;-76
2021/10/27 01:22:34;;;;;;;6.72;4.68;;;14.30;92.30;;;;;;5008329;28;20045;-75
2021/10/27 01:25:05;;;;;;;7.78;4.15;;;14.30;92.30;;;;;;5022560;28;20112;-76
2021/10/27 01:27:32;;;;;;;8.73;4.88;;;14.30;92.30;;;;;;5021103;28;20042;-76
2021/10/27 01:30:00;;;;;;;8.80;5.43;;;14.30;92.30;;;;;;5006935;28;20041;-76
2021/10/27 01:32:37;;;;;;;7.05;3.90;;;14.30;92.30;;;;;;5016856;28;20034;-76
2021/10/27 01:35:06;;;;;;;7.40;4.38;;;14.30;92.30;;;;;;5025963;28;20042;-76
2021/10/27 01:37:37;;;;;;;9.23;4.28;;;14.30;92.40;;;;;;5024751;28;20038;-76
2021/10/27 01:40:09;;;;;;;7.70;4.45;;;14.30;92.40;;;;;;5004341;28;20065;-76
2021/10/27 01:42:37;;;;;;;8.05;4.05;;;14.30;92.40;;;;;;5017067;28;20049;-76
2021/10/27 01:45:06;;;;;;;8.80;5.40;;;14.30;92.40;;;;;;4992303;28;20050;-76
2021/10/27 01:47:33;;;;;;;9.57;5.93;;;14.30;92.40;;;;;;5010259;28;20113;-75
2021/10/27 01:50:01;;;;;;;7.40;5.38;;;14.30;92.50;;;;;;5022178;28;20038;-77
2021/10/27 01:52:28;;;;;;;8.68;5.45;;;14.30;92.50;;;;;;4989581;28;21856;-77
2021/10/27 01:54:55;;;;;;;10.35;6.20;;;14.30;92.50;;;;;;5022698;28;20116;-77
2021/10/27 01:57:22;;;;;;;10.55;5.55;;;14.30;92.50;;;;;;5008418;28;21003;-77
2021/10/27 01:59:49;;;;;;;7.55;5.25;;;14.30;92.50;;;;;;5035292;28;20095;-77
2021/10/27 02:02:16;;;;;;;10.88;6.18;;;14.20;92.50;;;;;;4988550;28;20069;-77
2021/10/27 02:04:43;;;;;;;8.68;6.40;;;14.20;92.60;;;;;;5005565;28;20072;-77
2021/10/27 02:07:10;;;;;;;8.10;4.78;;;14.20;92.70;;;;;;5004880;28;20137;-77
2021/10/27 02:09:37;;;;;;;9.43;5.22;;;14.20;92.70;;;;;;5001860;28;20133;-77
2021/10/27 02:12:06;;;;;;;6.65;4.28;;;14.20;92.70;;;;;;5015201;28;20041;-77
2021/10/27 02:14:34;;;;;;;8.60;5.28;;;14.20;92.70;;;;;;5021549;28;20497;-76
2021/10/27 02:17:02;;;;;;;11.75;7.13;;;14.20;92.80;;;;;;5003349;28;20037;-76
2021/10/27 02:19:29;;;;;;;9.00;5.68;;;14.20;92.80;;;;;;5007013;28;20152;-77
2021/10/27 02:21:56;;;;;;;6.65;4.97;;;14.20;92.80;;;;;;5004939;28;20149;-77
2021/10/27 02:24:23;;;;;;;7.20;4.78;;;14.20;92.80;;;;;;5014455;28;20080;-77
2021/10/27 02:26:50;;;;;;;7.22;4.25;;;14.20;92.80;;;;;;4988287;28;20061;-77
2021/10/27 02:29:17;;;;;;;7.60;4.53;;;14.30;93.10;;;;;;5006944;28;20038;-77
2021/10/27 02:31:44;;;;;;;8.18;4.78;;;14.30;92.80;;;;;;5014942;28;20567;-77
2021/10/27 02:34:12;;;;;;;8.63;4.35;;;14.30;93.10;;;;;;5021626;28;20438;-76
2021/10/27 02:36:39;;;;;;;8.63;4.40;;;14.30;92.80;;;;;;5023592;28;20115;-77
2021/10/27 02:39:06;;;;;;;6.47;4.20;;;14.30;92.80;;;;;;5016373;28;20037;-75
2021/10/27 02:41:34;;;;;;;7.72;4.75;;;14.40;92.80;;;;;;5010336;28;20516;-76
2021/10/27 02:44:00;;;;;;;7.10;4.47;;;14.40;92.80;;;;;;5021911;28;20046;-76
2021/10/27 02:46:27;;;;;;;8.32;4.53;;;14.40;92.80;;;;;;5028579;28;20143;-76
2021/10/27 02:48:54;;;;;;;8.80;4.03;;;14.40;92.80;;;;;;5007078;28;20409;-77
2021/10/27 02:51:21;;;;;;;5.60;3.85;;;14.40;92.70;;;;;;5020747;28;20053;-77
2021/10/27 02:53:48;;;;;;;5.63;2.90;;;14.40;92.70;;;;;;5022549;28;20055;-76
2021/10/27 02:56:15;;;;;;;5.07;3.00;;;14.40;92.70;;;;;;5021050;28;20456;-77
2021/10/27 02:58:42;;;;;;;6.18;2.42;;;14.50;92.80;;;;;;5016399;28;20107;-77
2021/10/27 03:01:10;;;;;;;6.78;3.30;;;14.40;92.70;;;;;;5005127;28;20133;-77
2021/10/27 03:03:38;;;;;;;5.25;3.60;;;14.40;92.70;;;;;;5011579;28;20045;-77
2021/10/27 03:06:05;;;;;;;5.53;2.97;;;14.50;92.80;;;;;;5023165;28;20109;-77
2021/10/27 03:08:31;;;;;;;4.93;3.15;;;14.50;92.80;;;;;;5032705;28;20493;-77
2021/10/27 03:10:58;;;;;;;6.28;3.28;;;14.50;93.00;;;;;;5008842;28;20448;-77
2021/10/27 03:13:26;;;;;;;6.10;2.63;;;14.50;92.70;;;;;;5009213;28;20076;-77
2021/10/27 03:15:52;;;;;;;5.15;3.13;;;14.50;92.70;;;;;;5031271;28;20041;-77
2021/10/27 03:18:25;;;;;;;7.35;3.47;;;14.50;92.70;;;;;;5019247;28;20061;-77
2021/10/27 03:20:52;;;;;;;4.35;2.75;;;14.50;92.70;;;;;;5018743;28;20045;-77
2021/10/27 03:23:19;;;;;;;5.78;2.90;;;14.50;92.70;;;;;;5008118;28;20038;-77
2021/10/27 03:25:46;;;;;;;4.13;2.42;;;14.50;92.70;;;;;;5027170;28;20069;-77
2021/10/27 03:28:13;;;;;;;5.05;2.03;;;14.50;92.70;;;;;;5012090;28;20065;-77
2021/10/27 03:30:40;;;;;;;5.22;2.55;;;14.50;92.70;;;;;;5008201;28;20033;-77
2021/10/27 03:33:08;;;;;;;3.97;1.98;;;14.50;92.70;;;;;;5007077;28;20095;-77
2021/10/27 03:35:35;;;;;;;4.68;1.80;;;14.50;92.70;;;;;;5025188;28;20041;-77
2021/10/27 03:38:02;;;;;;;5.18;2.20;;;14.40;92.70;;;;;;5019180;28;20554;-77
2021/10/27 03:40:29;;;;;;;5.78;2.05;;;14.40;92.70;;;;;;5009179;28;20044;-77
2021/10/27 03:42:56;;;;;;;4.05;1.77;;;14.40;92.70;;;;;;5007023;28;20061;-76
2021/10/27 03:45:23;;;;;;;4.25;1.77;;;14.40;92.70;;;;;;5023576;28;20095;-77
2021/10/27 03:52:05;;;;;;;3.27;1.00;;;14.50;92.70;;;;;;5217837;23;20046;-77
2021/10/27 03:54:32;;;;;;;2.45;1.10;;;14.40;92.70;;;;;;4968309;28;20294;-77
2021/10/27 03:57:00;;;;;;;2.65;0.95;;;14.40;92.70;;;;;;4968698;28;20031;-77
2021/10/27 03:59:27;;;;;;;3.83;1.65;;;14.50;92.70;;;;;;4953408;28;20043;-77
2021/10/27 04:01:54;;;;;;;4.95;1.88;;;14.50;92.70;;;;;;4939392;28;20114;-77
2021/10/27 04:04:21;;;;;;;4.63;1.10;;;14.50;92.60;;;;;;4969694;28;20035;-77
2021/10/27 04:06:48;;;;;;;3.72;1.30;;;14.50;92.60;;;;;;4978870;28;20043;-77
2021/10/27 04:09:16;;;;;;;4.22;1.75;;;14.50;92.60;;;;;;4954321;28;20090;-77
2021/10/27 04:11:43;;;;;;;3.78;1.55;;;14.50;92.60;;;;;;4969526;28;20073;-77
2021/10/27 04:14:10;;;;;;;2.53;1.15;;;14.50;92.60;;;;;;4970737;28;20080;-77
2021/10/27 04:16:37;;;;;;;3.58;1.17;;;14.50;92.60;;;;;;4970391;28;20101;-77
2021/10/27 04:19:05;;;;;;;3.53;1.42;;;14.50;92.50;;;;;;4966480;28;20035;-77
2021/10/27 04:21:32;;;;;;;2.92;0.90;;;14.50;92.50;;;;;;4952352;28;20047;-77
2021/10/27 04:23:59;;;;;;;2.53;1.08;;;14.50;92.50;;;;;;4968310;28;20051;-77
2021/10/27 04:26:26;;;;;;;4.70;1.10;;;14.50;92.80;;;;;;4966596;28;20097;-77
2021/10/27 04:28:53;;;;;;;5.65;2.28;;;14.60;92.50;;;;;;4967600;28;20410;-77
2021/10/27 04:31:21;;;;;;;3.25;1.38;;;14.50;92.40;;;;;;4951852;28;20062;-77
2021/10/27 04:33:49;;;;;;;3.63;1.40;;;14.60;92.40;;;;;;4967948;28;20428;-77
2021/10/27 04:36:16;;;;;;;3.70;1.20;;;14.60;92.40;;;;;;4950755;28;20146;-77
2021/10/27 04:38:43;;;;;;;6.30;1.75;;;14.60;92.40;;;;;;4940686;28;20047;-79
2021/10/27 04:41:12;;;;;;;4.07;1.00;;;14.60;92.40;;;;;;4969765;28;20038;-76
2021/10/27 04:43:40;;;;;;;4.35;1.38;;;14.60;92.40;;;;;;4961328;28;20125;-76
2021/10/27 04:46:07;;;;;;;4.18;1.23;;;14.60;92.40;;;;;;4970421;28;20042;-77
2021/10/27 04:48:34;;;;;;;3.70;0.90;;;14.60;92.40;;;;;;4968356;28;20043;-76
2021/10/27 04:51:01;;;;;;;3.30;0.90;;;14.60;92.30;;;;;;4966326;28;20076;-77
2021/10/27 04:53:28;;;;;;;4.18;1.27;;;14.60;92.40;;;;;;4953418;28;20057;-76
2021/10/27 04:55:55;;;;;;;5.20;0.82;;;14.60;92.30;;;;;;4967336;28;20047;-77
2021/10/27 04:58:22;;;;;;;2.47;0.80;;;14.60;92.30;;;;;;4967832;28;20479;-76
2021/10/27 05:00:49;;;;;;;3.13;1.00;;;14.60;92.30;;;;;;4966918;28;20574;-77
2021/10/27 05:03:17;;;;;;;4.90;2.13;;;14.60;92.40;;;;;;4944887;28;20134;-77
2021/10/27 05:05:49;;;;;;;3.38;1.23;;;14.60;92.30;;;;;;4941720;28;20039;-77
2021/10/27 05:08:18;;;;;;;3.20;1.23;;;14.60;92.30;;;;;;4953436;28;20387;-77
2021/10/27 05:10:45;;;;;;;3.63;0.90;;;14.60;92.30;;;;;;4966229;28;20059;-76
2021/10/27 05:13:13;;;;;;;3.13;0.80;;;14.60;92.30;;;;;;4950065;28;20055;-77
2021/10/27 05:15:41;;;;;;;2.40;0.77;;;14.60;92.30;;;;;;4953643;28;20051;-76
2021/10/27 05:18:08;;;;;;;5.50;1.15;;;14.60;92.30;;;;;;4942627;28;21714;-76
2021/10/27 05:20:35;;;;;;;3.80;1.48;;;14.60;92.30;;;;;;4952526;28;20235;-77
2021/10/27 05:23:02;;;;;;;3.17;1.60;;;14.60;92.20;;;;;;4963740;28;20062;-76
2021/10/27 05:25:29;;;;;;;2.65;1.20;;;14.60;92.20;;;;;;4951571;28;20066;-76
2021/10/27 05:27:56;;;;;;;1.92;0.65;;;14.60;92.20;;;;;;4956859;28;20105;-77
2021/10/27 05:30:24;;;;;;;2.40;1.25;;;14.60;92.30;;;;;;4939344;28;20045;-76
2021/10/27 05:32:56;;;;;;;2.83;1.05;;;14.60;92.30;;;;;;4964468;28;20038;-77
2021/10/27 05:35:28;;;;;;;2.08;0.80;;;14.60;92.30;;;;;;4965677;28;20048;-76
2021/10/27 05:37:56;;;;;;;2.65;0.65;;;14.60;92.30;;;;;;4985268;28;20046;-76
2021/10/27 05:40:23;;;;;;;2.55;0.95;;;14.60;92.30;;;;;;4952223;28;20053;-76
2021/10/27 05:42:51;;;;;;;2.25;0.60;;;14.60;92.30;;;;;;4967257;28;20122;-77
2021/10/27 05:45:21;;;;;;;2.50;0.70;;;14.60;92.60;;;;;;4945066;28;20122;-76
2021/10/27 05:47:52;;;;;;;2.60;0.60;;;14.50;92.30;;;;;;4966714;28;20077;-77
2021/10/27 05:55:36;;;;;;;3.17;0.70;;;14.50;92.30;;;;;;4969206;28;20034;-76
2021/10/27 05:58:04;;;;;;;2.00;0.50;;;14.50;92.30;;;;;;4941644;28;20059;-76
2021/10/27 06:00:33;;;;;;;3.22;0.80;;;14.60;92.30;;;;;;4939491;28;20043;-76
2021/10/27 06:03:01;;;;;;;2.80;0.63;;;14.50;92.30;;;;;;4928984;29;20047;-77
2021/10/27 06:05:29;;;;;;;0.90;0.40;;;14.50;92.30;;;;;;4931495;28;20054;-77
2021/10/27 06:07:58;;;;;;;2.67;0.75;;;14.50;92.30;;;;;;4952020;28;20142;-77
2021/10/27 06:10:26;;;;;;;2.63;0.70;;;14.50;92.30;;;;;;4970956;28;20047;-77
2021/10/27 06:13:03;;;;;;;2.78;1.33;;;14.50;92.30;;;;;;4947753;28;20047;-76
2021/10/27 06:15:30;;;;;;;2.88;0.80;;;14.50;92.30;;;;;;4944578;28;20080;-76
2021/10/27 06:17:59;;;;;;;3.28;1.08;;;14.50;92.30;;;;;;4939287;28;20042;-76
2021/10/27 06:20:26;;;;;;;2.15;0.65;;;14.50;92.30;;;;;;4955634;28;20123;-77
2021/10/27 06:22:53;;;;;;;4.13;1.00;;;14.50;92.30;;;;;;4944931;28;20039;-76
2021/10/27 06:25:20;;;;;;;2.28;1.13;;;14.50;92.20;;;;;;4967070;28;20039;-77
2021/10/27 06:27:51;;;;;;;1.83;0.82;;;14.50;92.20;;;;;;4966337;28;20393;-77
2021/10/27 06:30:26;;;;;;;3.35;0.93;;;14.50;92.20;;;;;;4927643;28;20081;-77
2021/10/27 06:33:03;;;;;;;4.45;1.30;;;14.50;92.20;;;;;;4963047;28;20098;-77
2021/10/27 06:35:34;;;;;;;2.45;0.95;;;14.50;92.20;;;;;;4950314;28;20054;-76
2021/10/27 06:38:24;;;;;;;2.40;0.88;;;14.50;92.20;;;;;;4954211;28;20039;-76
2021/10/27 06:46:56;;;;;;;7.10;1.98;;;14.50;92.10;;;;;;4970898;28;20451;-76
2021/10/27 06:49:15;;;;;;;;;;;14.50;92.10;;;;;;4966110;28;20406;-76
2021/10/27 06:51:42;;;;;;;4.05;1.80;;;14.40;92.10;;;;;;4901718;28;1188845;-77
2021/10/27 06:54:10;;;;;;;5.63;2.00;;;14.40;92.10;;;;;;4966039;28;20043;-77
2021/10/27 06:56:37;;;;;;;6.18;2.10;;;14.40;92.10;;;;;;4954370;28;20039;-78
2021/10/27 07:15:26;;;;;;;3.80;1.92;;;14.40;92.00;;;;;;4951641;28;20442;-76
2021/10/27 07:17:55;;;;;;;4.82;2.10;;;14.40;91.90;;;;;;4955772;28;20059;-76
2021/10/27 07:20:24;;;;;;;4.57;1.48;;;14.50;91.90;;;;;;4970770;28;20062;-78
2021/10/27 07:22:53;;;;;;;5.80;1.48;;;14.50;91.90;;;;;;4949483;28;20045;-80
2021/10/27 07:25:21;;;;;;;3.90;1.15;;;14.50;91.90;;;;;;4984483;28;20043;-79
2021/10/27 07:27:50;;;;;;;3.13;1.13;;;14.50;92.00;;;;;;4957359;28;20054;-79
2021/10/27 07:30:17;;;;;;;6.60;1.70;;;14.50;91.90;;;;;;4943115;28;20047;-77
2021/10/27 07:32:44;;;;;;;3.85;1.63;;;14.50;91.90;;;;;;4967695;28;20034;-76
2021/10/27 07:35:19;;;;;;;4.00;1.60;;;14.50;91.90;;;;;;4945838;28;20498;-77
2021/10/27 07:40:43;;;;;;;5.57;2.15;;;14.60;91.80;;;;;;4953688;28;20106;-77
2021/10/27 07:43:20;;;;;;;3.78;1.90;;;14.60;91.80;;;;;;4968639;28;20078;-79
2021/10/27 07:45:49;;;;;;;4.55;1.65;;;14.60;91.80;;;;;;4963495;28;20470;-81
2021/10/27 07:48:17;;;;;;;4.93;1.63;;;14.60;91.80;;;;;;4956053;28;20138;-77
2021/10/27 07:50:44;;;;;;;4.45;1.92;;;14.60;91.80;;;;;;4954045;28;20098;-78
2021/10/27 07:53:14;;;;;;;5.13;1.80;;;14.70;91.70;;;;;;4973782;28;20715;-78
2021/10/27 07:55:43;;;;;;;5.93;1.65;;;14.70;91.70;;;;;;4956363;28;20147;-78
2021/10/27 07:58:11;;;;;;;3.85;2.08;;;14.70;91.70;;;;;;4966246;28;20058;-77
2021/10/27 08:00:42;;;;;;;3.45;1.80;;;14.70;91.60;;;;;;4939258;28;20406;-77
2021/10/27 08:03:13;;;;;;;4.25;1.70;;;14.70;91.60;;;;;;4964775;28;20038;-77
2021/10/27 08:05:42;;;;;;;4.43;1.42;;;14.70;91.60;;;;;;4973618;28;20391;-78
2021/10/27 08:08:13;;;;;;;3.88;1.90;;;14.70;91.70;;;;;;4960944;28;20043;-77
2021/10/27 08:10:41;;;;;;;4.40;1.65;;;14.80;91.60;;;;;;4957719;28;20063;-76
2021/10/27 08:13:09;;;;;;;6.70;1.90;;;14.80;91.60;;;;;;4957759;28;20414;-76
2021/10/27 08:15:41;;;;;;;4.93;1.98;;;14.80;91.60;;;;;;4936201;28;20051;-76
2021/10/27 08:18:11;;;;;;;5.65;2.13;;;14.80;91.50;;;;;;4973360;28;20407;-76
2021/10/27 08:20:38;;;;;;;8.25;2.40;;;14.80;91.50;;;;;;4941916;28;20043;-76
2021/10/27 08:23:09;;;;;;;3.47;1.77;;;14.90;91.50;;;;;;4972062;28;20035;-76
2021/10/27 08:25:43;;;;;;;4.70;1.73;;;14.90;91.50;;;;;;4973553;28;20046;-76
2021/10/27 08:28:14;;;;;;;6.38;3.40;;;15.00;91.50;;;;;;4970735;28;20046;-79
2021/10/27 08:30:55;;;;;;;5.53;3.08;;;15.10;91.30;;;;;;4964243;28;20046;-79
2021/10/27 08:33:43;;;;;;;5.53;2.90;;;15.10;91.20;;;;;;4975806;28;20035;-78
2021/10/27 08:36:11;;;;;;;4.70;2.20;;;15.10;91.20;;;;;;4962241;28;20131;-77
2021/10/27 08:38:38;;;;;;;7.75;2.70;;;15.20;91.20;;;;;;4957998;28;20035;-77
2021/10/27 08:41:14;;;;;;;5.35;2.67;;;15.20;91.10;;;;;;4943279;29;20050;-77
2021/10/27 08:43:42;;;;;;;7.68;2.42;;;15.20;91.10;;;;;;4972665;28;20046;-77
2021/10/27 08:46:11;;;;;;;7.90;2.78;;;15.20;91.20;;;;;;4965022;28;20038;-77
2021/10/27 08:48:43;;;;;;;5.72;3.78;;;15.10;91.10;;;;;;4969187;28;20042;-77
2021/10/27 08:51:12;;;;;;;7.90;4.03;;;15.10;91.00;;;;;;4972686;28;20059;-77
2021/10/27 08:53:39;;;;;;;9.40;3.75;;;15.10;91.00;;;;;;4971240;28;20066;-76
2021/10/27 08:56:08;;;;;;;7.65;3.20;;;15.00;90.90;;;;;;4957471;28;20051;-77
2021/10/27 08:58:43;;;;;;;6.43;2.65;;;15.00;91.10;;;;;;4970883;28;20043;-76
2021/10/27 09:01:35;;;;;;;6.18;3.78;;;15.10;91.10;;;;;;4970165;28;21639;-81
2021/10/27 10:06:46;;;;;;;5.15;3.10;;;16.00;90.20;;;;;;4972456;28;20038;-79
2021/10/27 10:09:14;;;;;;;5.07;3.40;;;16.00;90.20;;;;;;4972223;28;20061;-77
2021/10/27 10:11:42;;;;;;;6.18;2.88;;;16.00;90.20;;;;;;4961108;28;20043;-78
2021/10/27 10:14:10;;;;;;;4.70;2.30;;;16.10;90.20;;;;;;4967401;28;20051;-77
2021/10/27 10:16:48;;;;;;;3.97;2.17;;;16.20;90.20;;;;;;4942789;28;20131;-77
2021/10/27 10:19:23;;;;;;;6.97;3.10;;;16.20;90.10;;;;;;4973159;28;20047;-77
2021/10/27 10:21:53;;;;;;;4.90;2.20;;;16.30;90.10;;;;;;4973050;28;20090;-77
2021/10/27 10:24:29;;;;;;;6.30;2.92;;;16.30;90.10;;;;;;4971772;28;20043;-77
2021/10/27 10:27:01;;;;;;;3.92;2.45;;;16.30;90.00;;;;;;4953942;28;20039;-79
2021/10/27 10:29:38;;;;;;;6.03;2.97;;;16.40;90.00;;;;;;4945309;28;20058;-78
2021/10/27 10:32:30;;;;;;;5.70;3.17;;;16.50;89.70;;;;;;4966940;28;20050;-77
2021/10/27 10:35:01;;;;;;;5.75;2.95;;;16.40;89.60;;;;;;4955443;28;20502;-75
2021/10/27 10:37:46;;;;;;;4.43;2.53;;;16.40;89.90;;;;;;4967312;28;20061;-77
2021/10/27 10:40:32;;;;;;;6.00;4.05;;;16.40;89.80;;;;;;4940492;29;20051;-77
2021/10/27 10:45:48;;;;;;;6.38;3.92;;;16.50;88.90;;;;;;4970279;28;20059;-77
2021/10/27 11:00:27;;;;;;;8.60;4.65;;;16.40;87.70;;;;;;4975226;28;20073;-77
2021/10/27 11:02:54;;;;;;;8.77;4.60;;;16.40;88.10;;;;;;4957919;28;20065;-77
2021/10/27 11:23:30;;;;;;;5.78;2.20;;;16.80;87.80;;;;;;4973967;28;20483;-76
2021/10/27 11:40:35;;;;;;;3.00;2.20;;;16.60;86.90;;;;;;4972435;28;20447;-77
2021/10/27 11:43:15;;;;;;;3.53;2.08;;;16.60;87.00;;;;;;4971462;28;20459;-77
2021/10/27 11:50:59;;;;;;;4.28;2.80;;;16.60;87.30;;;;;;4975695;28;20109;-76
2021/10/27 11:53:33;;;;;;;3.83;2.42;;;16.60;87.10;;;;;;4964112;28;20061;-74
2021/10/27 11:56:20;;;;;;;4.25;3.00;;;16.60;87.10;;;;;;4947702;28;20047;-75
2021/10/27 11:58:49;;;;;;;4.20;2.88;;;16.70;86.40;;;;;;4957822;28;20047;-76
2021/10/27 12:01:51;;;;;;;3.70;2.88;;;16.60;86.60;;;;;;4970697;28;20538;-76
2021/10/27 12:04:17;;;;;;;5.40;2.80;;;16.70;86.70;;;;;;4968789;28;20074;-76
2021/10/27 12:14:57;;;;;;;4.85;1.90;;;16.90;86.50;;;;;;4967222;28;20039;-75
2021/10/27 12:17:28;;;;;;;6.20;2.70;;;16.90;86.40;;;;;;4972317;28;20042;-76
2021/10/27 12:19:55;;;;;;;4.45;2.90;;;16.90;86.00;;;;;;4923942;28;20047;-76
2021/10/27 12:22:23;;;;;;;5.78;3.05;;;16.90;86.00;;;;;;4971035;28;20554;-77
2021/10/27 12:24:55;;;;;;;4.57;2.28;;;16.90;86.10;;;;;;4951569;28;20138;-75
2021/10/27 12:29:59;;;;;;;5.18;1.85;;;17.10;86.10;;;;;;4973304;28;20364;-77
2021/10/27 12:32:27;;;;;;;4.18;2.30;;;17.10;85.80;;;;;;4974851;28;20074;-77
2021/10/27 12:35:08;;;;;;;5.80;2.58;;;17.20;85.80;;;;;;4974755;28;20463;-77
2021/10/27 12:37:48;;;;;;;4.38;2.50;;;17.20;85.60;;;;;;4949542;28;20043;-77
2021/10/27 12:40:27;;;;;;;4.47;2.33;;;17.20;85.60;;;;;;4966057;28;20051;-79
2021/10/27 12:43:00;;;;;;;3.70;2.22;;;17.20;85.70;;;;;;4972152;28;20090;-79
2021/10/27 12:45:30;;;;;;;;;;;17.20;85.40;;;;;;4973186;28;20135;-79
2021/10/27 12:48:02;;;;;;;3.85;2.58;;;17.20;85.40;;;;;;4957530;28;19929;-79
2021/10/27 12:50:30;;;;;;;4.45;2.75;;;17.10;85.60;;;;;;4972052;28;20097;-79
2021/10/27 12:53:03;;;;;;;5.35;2.60;;;17.10;86.10;;;;;;4960871;28;20051;-79
2021/10/27 12:55:38;;;;;;;5.60;2.70;;;17.10;85.60;;;;;;4939299;28;20186;-79
2021/10/27 12:58:13;;;;;;;4.07;2.28;;;17.10;85.60;;;;;;4964653;28;20090;-79
2021/10/27 13:06:30;;;;;;;4.50;2.28;;;17.30;85.60;;;;;;4964280;28;20701;-81
2021/10/27 13:09:16;;;;;;;4.20;2.35;;;17.40;85.20;;;;;;4960160;28;20055;-80
2021/10/27 13:30:18;;;;;;;3.53;2.25;;;17.50;84.90;;;;;;4959219;28;20054;-76
2021/10/27 13:32:53;;;;;;;5.68;2.10;;;17.50;84.50;;;;;;4969481;28;20047;-76
2021/10/27 13:35:26;;;;;;;4.07;1.80;;;17.40;84.60;;;;;;4958593;28;20098;-78
2021/10/27 13:37:54;;;;;;;5.28;2.88;;;17.40;84.90;;;;;;4969047;28;20109;-78
2021/10/27 13:40:22;;;;;;;4.68;1.85;;;17.40;84.60;;;;;;4953163;28;20105;-79
2021/10/27 13:42:58;;;;;;;2.75;1.40;;;17.40;84.90;;;;;;4972023;28;20541;-78
2021/10/27 13:45:35;;;;;;;5.47;2.42;;;17.40;85.00;;;;;;4947055;28;20087;-78
2021/10/27 14:07:19;;;;;;;3.67;1.75;;;17.20;84.50;;;;;;4964976;28;20487;-77
2021/10/27 14:09:52;;;;;;;4.25;2.50;;;17.20;84.60;;;;;;4936521;28;20462;-78
2021/10/27 14:12:24;;;;;;;7.20;2.63;;;17.10;84.40;;;;;;4951918;28;20506;-75
2021/10/27 14:15:36;;;;;;;3.58;2.25;;;17.10;84.60;;;;;;4930829;28;20037;-77
2021/10/27 15:19:51;;;;;;;3.83;1.25;;;15.90;87.00;;;;;;4960224;28;20051;-77
2021/10/27 15:52:08;;;;;;;1.73;0.70;;;15.30;87.90;;;;;;4958253;28;20513;-79
2021/10/27 15:54:35;;;;;;;3.55;0.90;;;15.20;88.10;;;;;;4946263;28;20504;-79
2021/10/27 15:57:02;;;;;;;3.00;0.60;;;15.20;88.30;;;;;;4938899;28;20140;-79
2021/10/27 15:59:30;;;;;;;1.30;0.60;;;15.10;88.40;;;;;;4948571;28;20046;-78
2021/10/27 16:01:57;;;;;;;1.88;0.65;;;15.10;88.60;;;;;;4938907;28;20050;-78
2021/10/27 16:04:24;;;;;;;3.03;0.50;;;15.00;89.30;;;;;;4954203;28;20043;-77
2021/10/27 16:06:53;;;;;;;4.38;1.13;;;14.90;88.80;;;;;;4973403;28;20042;-77
2021/10/27 16:09:25;;;;;;;2.88;0.70;;;14.90;89.00;;;;;;4944225;28;20043;-77
2021/10/27 16:11:52;;;;;;;2.10;0.57;;;14.80;89.00;;;;;;4957925;28;20042;-78
2021/10/27 16:14:23;;;;;;;1.45;0.60;;;14.80;89.30;;;;;;4941661;28;20134;-77
2021/10/27 16:16:51;;;;;;;1.35;0.50;;;14.70;89.30;;;;;;4947837;28;20380;-76
2021/10/27 16:19:24;;;;;;;2.47;0.80;;;14.60;89.50;;;;;;4939043;28;20077;-76
2021/10/27 16:22:09;;;;;;;2.45;0.60;;;14.50;90.00;;;;;;4936799;29;20047;-76
2021/10/27 16:24:38;;;;;;;1.17;0.50;;;14.40;89.80;;;;;;4971575;28;20043;-77
2021/10/27 16:27:07;;;;;;;2.22;0.73;;;14.40;89.90;;;;;;4939457;29;20031;-78
2021/10/27 16:29:34;;;;;;;3.72;0.52;;;14.40;90.00;;;;;;4954123;28;20086;-76
2021/10/27 16:32:07;;;;;;;2.60;0.60;;;14.30;90.00;;;;;;4966497;28;20368;-77
2021/10/27 16:34:34;;;;;;;2.67;0.70;;;14.20;90.10;;;;;;4938776;28;20047;-75
2021/10/27 16:37:21;;;;;;;0.90;0.43;;;14.20;90.10;;;;;;4964896;28;20038;-76
2021/10/27 16:39:48;;;;;;;3.80;0.55;;;14.10;90.20;;;;;;4946012;28;20067;-75
2021/10/27 16:42:16;;;;;;;2.13;0.50;;;14.00;90.50;;;;;;4972285;28;20090;-77
2021/10/27 16:44:43;;;;;;;1.25;0.50;;;14.00;90.30;;;;;;4967202;28;20542;-76
2021/10/27 16:47:11;;;;;;;2.83;0.50;;;13.90;90.30;;;;;;4964193;28;20031;-74
2021/10/27 16:49:38;;;;;;;2.53;0.50;;;13.90;90.40;;;;;;4971394;28;20047;-75
2021/10/27 16:52:05;;;;;;;1.45;0.68;;;13.80;90.40;;;;;;4927901;28;20074;-76
2021/10/27 16:54:32;;;;;;;1.33;0.43;;;13.80;90.40;;;;;;4948300;28;20047;-76
2021/10/27 16:56:59;;;;;;;1.83;0.45;;;13.80;90.50;;;;;;4952377;28;20107;-76
2021/10/27 16:59:26;;;;;;;1.20;0.55;;;13.80;90.50;;;;;;4967167;28;20043;-74
2021/10/27 17:01:53;;;;;;;0.98;0.52;;;13.70;90.50;;;;;;4947163;28;20039;-76
2021/10/27 17:04:21;;;;;;;0.95;0.50;;;13.70;90.50;;;;;;4973206;28;20042;-75
2021/10/27 17:06:48;;;;;;;1.60;0.70;;;13.70;90.60;;;;;;4944733;28;20042;-86
2021/10/27 17:09:16;;;;;;;1.45;0.60;;;13.60;90.60;;;;;;4953346;28;20054;-76
2021/10/27 17:11:43;;;;;;;1.50;0.50;;;13.60;90.60;;;;;;4949900;29;20075;-77
2021/10/27 17:14:11;;;;;;;1.17;0.68;;;13.60;90.70;;;;;;4967466;28;20070;-78
2021/10/27 17:16:40;;;;;;;2.38;0.50;;;13.50;90.70;;;;;;4938649;29;20043;-78
2021/10/27 17:19:07;;;;;;;1.25;0.40;;;13.50;90.80;;;;;;4941409;28;20110;-78
2021/10/27 17:21:35;;;;;;;1.20;0.60;;;13.50;90.80;;;;;;4973379;28;20050;-77
2021/10/27 17:24:02;;;;;;;1.30;0.50;;;13.50;90.80;;;;;;4946836;29;20050;-77
2021/10/27 17:26:29;;;;;;;1.10;0.40;;;13.50;90.80;;;;;;4971217;28;20078;-78
2021/10/27 17:28:57;;;;;;;0.77;0.40;;;13.50;90.90;;;;;;4963853;28;20043;-77
2021/10/27 17:31:24;;;;;;;2.42;0.57;;;13.50;90.90;;;;;;4950272;28;20063;-79
2021/10/27 17:33:51;;;;;;;1.30;0.52;;;13.40;90.90;;;;;;4944136;28;20055;-81
2021/10/27 17:36:22;;;;;;;1.63;0.70;;;13.40;90.90;;;;;;4940765;28;20047;-81
2021/10/27 17:38:49;;;;;;;1.83;0.70;;;13.40;90.90;;;;;;4969714;28;20089;-82
2021/10/27 17:41:20;;;;;;;1.88;0.70;;;13.40;91.00;;;;;;4938732;28;20091;-79
2021/10/27 17:43:49;;;;;;;1.23;0.70;;;13.30;91.00;;;;;;4937966;29;20151;-80
2021/10/27 17:46:17;;;;;;;1.50;0.73;;;13.40;91.00;;;;;;4938275;29;20054;-81
2021/10/27 17:49:02;;;;;;;1.17;0.70;;;13.30;91.00;;;;;;4927981;28;20042;-80
2021/10/27 17:51:35;;;;;;;1.48;0.60;;;13.30;91.00;;;;;;4932771;28;20051;-80
2021/10/27 17:59:34;;;;;;;1.60;0.70;;;13.20;91.10;;;;;;4956659;28;20050;-77
2021/10/27 18:02:00;;;;;;;1.35;0.57;;;13.20;91.10;;;;;;4941013;28;20126;-78